Time;durP1;ratioP1;P1;durP2;ratioP2;P2;SDS_P1;SDS_P2;PMS_P1;PMS_P2;Temp;Humidity;BMP_temperature;BMP_pressure;BME280_temperature;BME280_humidity;BME280_pressure;Samples;Min_cycle;Max_cycle;Signal;HPM_P1;HPM_P2
2023/03/07 00:00:49;;;;;;;9.45;3.30;;;1.80;67.60;;;;;;4079330;29;20516;-85
2023/03/07 00:02:50;;;;;;;6.72;3.20;;;1.80;67.50;;;;;;4095174;29;20043;-82
2023/03/07 00:04:51;;;;;;;8.18;3.95;;;1.70;67.90;;;;;;4105607;28;20070;-84
2023/03/07 00:06:55;;;;;;;5.68;3.60;;;1.70;68.00;;;;;;4110987;28;20027;-85
2023/03/07 00:08:58;;;;;;;4.70;3.13;;;1.70;68.20;;;;;;4090129;28;20049;-85
2023/03/07 00:11:01;;;;;;;4.47;3.20;;;1.60;68.40;;;;;;4094309;28;20541;-84
2023/03/07 00:13:02;;;;;;;6.43;3.80;;;1.70;68.80;;;;;;4073227;29;20032;-84
2023/03/07 00:15:05;;;;;;;7.82;3.97;;;1.70;69.50;;;;;;4111007;28;20041;-84
2023/03/07 00:17:05;;;;;;;6.47;3.72;;;1.70;69.00;;;;;;4091646;29;20043;-84
2023/03/07 00:19:06;;;;;;;8.63;4.05;;;1.70;68.90;;;;;;4076548;29;20034;-83
2023/03/07 00:21:14;;;;;;;6.22;3.97;;;1.70;69.10;;;;;;4080517;29;20027;-84
2023/03/07 00:23:15;;;;;;;6.72;3.90;;;1.70;69.60;;;;;;4108706;28;20595;-83
2023/03/07 00:25:16;;;;;;;6.75;3.92;;;1.70;69.40;;;;;;4094685;28;20027;-83
2023/03/07 00:27:17;;;;;;;6.40;4.20;;;1.60;69.50;;;;;;4114879;28;20041;-85
2023/03/07 00:29:18;;;;;;;6.45;4.03;;;1.70;69.70;;;;;;4109241;28;20023;-83
2023/03/07 00:31:20;;;;;;;5.97;3.53;;;1.70;69.70;;;;;;4093189;29;20028;-83
2023/03/07 00:33:21;;;;;;;6.40;4.03;;;1.70;70.00;;;;;;4105702;28;20046;-84
2023/03/07 00:35:21;;;;;;;6.85;4.13;;;1.60;70.20;;;;;;4094097;29;20486;-83
2023/03/07 00:37:22;;;;;;;6.53;4.15;;;1.60;70.20;;;;;;4108268;28;20061;-84
2023/03/07 00:39:23;;;;;;;8.07;4.32;;;1.60;70.40;;;;;;4113076;28;20528;-84
2023/03/07 00:41:27;;;;;;;6.60;3.92;;;1.60;70.90;;;;;;4112228;28;20023;-84
2023/03/07 00:43:29;;;;;;;6.00;3.80;;;1.70;70.80;;;;;;4076114;29;20046;-84
2023/03/07 00:45:30;;;;;;;6.88;4.32;;;1.60;70.60;;;;;;4078877;29;20028;-82
2023/03/07 00:47:30;;;;;;;8.65;4.50;;;1.60;70.70;;;;;;4095965;28;20031;-83
2023/03/07 00:49:31;;;;;;;7.38;4.30;;;1.60;70.70;;;;;;4107668;28;20279;-82
2023/03/07 00:51:33;;;;;;;6.30;4.15;;;1.60;70.90;;;;;;4095740;29;20027;-82
2023/03/07 00:53:34;;;;;;;7.00;4.47;;;1.60;71.30;;;;;;4095381;29;20094;-84
2023/03/07 00:55:35;;;;;;;8.35;4.88;;;1.60;71.20;;;;;;4112183;28;20029;-81
2023/03/07 00:57:35;;;;;;;7.20;4.60;;;1.60;71.40;;;;;;4111946;28;20035;-84
2023/03/07 00:59:36;;;;;;;9.10;5.70;;;1.60;71.50;;;;;;4109577;28;20089;-84
2023/03/07 01:01:37;;;;;;;9.23;5.88;;;1.60;71.50;;;;;;4096596;29;20106;-83
2023/03/07 01:03:37;;;;;;;9.00;5.00;;;1.60;71.70;;;;;;4109421;28;20031;-83
2023/03/07 01:05:39;;;;;;;10.82;5.60;;;1.60;71.70;;;;;;4099523;29;20027;-84
2023/03/07 01:07:40;;;;;;;10.38;6.13;;;1.60;71.80;;;;;;4097411;28;20030;-83
2023/03/07 01:09:42;;;;;;;11.30;6.93;;;1.60;72.50;;;;;;4094385;28;20098;-85
2023/03/07 01:11:42;;;;;;;12.10;7.03;;;1.60;72.60;;;;;;4081367;29;20032;-85
2023/03/07 01:13:43;;;;;;;13.50;7.30;;;1.60;72.50;;;;;;4096544;28;20298;-84
2023/03/07 01:15:44;;;;;;;12.77;7.53;;;1.70;72.70;;;;;;4116629;28;20090;-84
2023/03/07 01:17:55;;;;;;;19.27;7.20;;;1.80;72.90;;;;;;4112061;28;20030;-83
2023/03/07 01:20:16;;;;;;;13.70;7.85;;;1.70;73.10;;;;;;4108198;28;20556;-84
2023/03/07 01:22:37;;;;;;;11.70;7.55;;;1.70;73.00;;;;;;4095491;28;20098;-84
2023/03/07 01:24:38;;;;;;;11.73;7.35;;;1.70;73.00;;;;;;4108013;28;20035;-83
2023/03/07 01:26:59;;;;;;;14.38;8.25;;;1.70;72.90;;;;;;4109918;28;20034;-84
2023/03/07 01:29:19;;;;;;;12.45;6.93;;;1.70;72.80;;;;;;4113921;28;20045;-82
2023/03/07 01:31:21;;;;;;;13.32;8.20;;;1.70;73.10;;;;;;4093801;28;20031;-84
2023/03/07 01:33:41;;;;;;;13.05;7.38;;;1.70;73.00;;;;;;4097187;28;20035;-84
2023/03/07 01:36:02;;;;;;;13.20;7.47;;;1.70;73.00;;;;;;4111551;28;20027;-85
2023/03/07 01:38:23;;;;;;;12.02;7.25;;;1.70;73.50;;;;;;4094678;28;20057;-84
2023/03/07 01:40:44;;;;;;;14.52;7.63;;;1.80;73.30;;;;;;4112455;28;20042;-84
2023/03/07 01:43:31;;;;;;;11.20;7.03;;;1.80;73.40;;;;;;4112704;28;20019;-84
2023/03/07 01:46:15;;;;;;;13.88;7.65;;;1.80;73.60;;;;;;4110651;28;20062;-84
2023/03/07 01:48:36;;;;;;;16.55;8.18;;;1.80;73.80;;;;;;4098138;28;20054;-84
2023/03/07 01:50:56;;;;;;;13.50;7.55;;;1.90;73.80;;;;;;4113524;28;20027;-84
2023/03/07 01:53:17;;;;;;;13.57;7.97;;;1.80;73.60;;;;;;4097366;28;20043;-84
2023/03/07 01:55:36;;;;;;;14.05;8.50;;;1.80;73.60;;;;;;4094319;29;20111;-85
2023/03/07 01:57:59;;;;;;;16.02;9.05;;;1.90;74.00;;;;;;4112711;28;20031;-85
2023/03/07 02:00:28;;;;;;;18.73;9.80;;;1.80;73.80;;;;;;4110859;28;20058;-85
2023/03/07 02:03:10;;;;;;;17.20;9.27;;;1.80;74.10;;;;;;4110725;28;20034;-84
2023/03/07 02:05:36;;;;;;;19.55;10.15;;;1.80;74.70;;;;;;4113570;28;20126;-85
2023/03/07 02:08:00;;;;;;;18.45;10.55;;;1.90;74.10;;;;;;4112315;28;20412;-83
2023/03/07 02:10:00;;;;;;;;;;;1.90;74.10;;;;;;4097367;28;20027;-82
2023/03/07 02:12:02;;;;;;;17.38;8.93;;;1.90;74.30;;;;;;4080695;29;20489;-83
2023/03/07 02:14:03;;;;;;;18.27;8.88;;;1.90;73.90;;;;;;4074157;29;20562;-83
2023/03/07 02:16:06;;;;;;;19.40;8.32;;;1.90;74.00;;;;;;4108147;28;20062;-82
2023/03/07 02:18:07;;;;;;;;;;;2.00;74.10;;;;;;4073918;29;20601;-83
2023/03/07 02:20:13;;;;;;;19.00;8.75;;;2.10;74.70;;;;;;4110472;28;20000;-84
2023/03/07 02:22:17;;;;;;;16.42;8.82;;;2.00;74.40;;;;;;4095810;29;20019;-83
2023/03/07 02:24:39;;;;;;;16.30;8.30;;;2.00;74.40;;;;;;4079177;29;20020;-84
2023/03/07 02:26:47;;;;;;;22.85;8.27;;;2.00;75.80;;;;;;4079550;29;20119;-84
2023/03/07 02:28:48;;;;;;;19.60;7.78;;;2.00;75.40;;;;;;4111702;28;20023;-85
2023/03/07 02:31:09;;;;;;;13.95;6.78;;;2.00;75.30;;;;;;4096455;29;20141;-86
2023/03/07 02:33:09;;;;;;;19.17;7.75;;;2.10;75.50;;;;;;4094557;28;20035;-84
2023/03/07 02:35:14;;;;;;;18.13;8.15;;;2.10;75.30;;;;;;4095825;28;20188;-84
2023/03/07 02:37:31;;;;;;;15.52;6.95;;;2.10;76.10;;;;;;4080157;29;20038;-84
2023/03/07 02:39:32;;;;;;;13.77;6.53;;;2.20;75.60;;;;;;4111295;28;20026;-84
2023/03/07 02:41:34;;;;;;;13.38;5.97;;;2.20;75.60;;;;;;4096820;28;20015;-84
2023/03/07 02:43:34;;;;;;;15.65;6.13;;;2.20;75.50;;;;;;4110873;28;20037;-85
2023/03/07 02:45:36;;;;;;;16.33;6.40;;;2.20;75.50;;;;;;4095370;28;20031;-84
2023/03/07 02:47:37;;;;;;;14.63;5.35;;;2.20;75.80;;;;;;4096519;28;20118;-85
2023/03/07 02:49:37;;;;;;;18.25;4.90;;;2.20;75.70;;;;;;4097542;28;20051;-84
2023/03/07 02:51:38;;;;;;;9.65;4.30;;;2.20;76.30;;;;;;4112015;28;20088;-84
2023/03/07 02:53:39;;;;;;;15.60;4.10;;;2.20;75.80;;;;;;4109218;29;20087;-84
2023/03/07 02:55:39;;;;;;;13.57;4.10;;;2.20;75.60;;;;;;4110488;28;20035;-84
2023/03/07 02:57:40;;;;;;;8.55;3.13;;;2.20;75.80;;;;;;4095757;29;20153;-84
2023/03/07 02:59:41;;;;;;;17.13;3.00;;;2.20;75.50;;;;;;4077382;29;20027;-83
2023/03/07 03:01:42;;;;;;;8.40;2.83;;;2.20;75.50;;;;;;4077626;29;20041;-83
2023/03/07 03:03:43;;;;;;;11.82;2.53;;;2.20;75.20;;;;;;4093266;28;20055;-84
2023/03/07 03:05:44;;;;;;;8.98;2.70;;;2.20;75.40;;;;;;4100715;28;20023;-84
2023/03/07 03:07:45;;;;;;;15.00;3.78;;;2.20;75.30;;;;;;4081553;29;20087;-83
2023/03/07 03:09:46;;;;;;;14.93;4.00;;;2.10;75.20;;;;;;4095730;29;20070;-83
2023/03/07 03:11:47;;;;;;;14.43;4.07;;;2.20;75.10;;;;;;4083686;29;20047;-83
2023/03/07 03:13:48;;;;;;;15.32;3.90;;;2.20;75.30;;;;;;4096413;28;20031;-84
2023/03/07 03:15:55;;;;;;;18.05;5.47;;;2.10;76.30;;;;;;4096222;28;20602;-84
2023/03/07 03:17:55;;;;;;;15.77;3.70;;;2.20;75.40;;;;;;4095594;29;20032;-84
2023/03/07 03:19:57;;;;;;;15.88;3.63;;;2.20;75.30;;;;;;4099147;28;20059;-84
2023/03/07 03:21:57;;;;;;;15.60;4.32;;;2.10;75.60;;;;;;4099592;29;20485;-84
2023/03/07 03:24:06;;;;;;;15.93;4.22;;;2.10;75.90;;;;;;4080442;29;20024;-83
2023/03/07 03:26:10;;;;;;;11.50;3.28;;;2.10;75.60;;;;;;4096973;28;20031;-84
2023/03/07 03:28:15;;;;;;;17.67;4.05;;;2.10;75.80;;;;;;4115658;28;20778;-83
2023/03/07 03:30:16;;;;;;;12.55;3.65;;;2.10;75.80;;;;;;4081977;29;20028;-84
2023/03/07 03:32:16;;;;;;;17.85;3.05;;;2.10;75.70;;;;;;4111986;28;20058;-83
2023/03/07 03:34:18;;;;;;;26.70;4.65;;;2.10;75.80;;;;;;4099983;28;20026;-83
2023/03/07 03:36:19;;;;;;;16.10;4.05;;;2.20;76.00;;;;;;4079924;29;20067;-84
2023/03/07 03:38:19;;;;;;;17.25;4.03;;;2.20;76.30;;;;;;4097981;28;20096;-84
2023/03/07 03:40:20;;;;;;;24.40;4.10;;;2.20;76.70;;;;;;4115344;28;20023;-84
2023/03/07 03:42:21;;;;;;;18.83;4.30;;;2.20;76.60;;;;;;4113583;28;20212;-84
2023/03/07 03:44:21;;;;;;;19.90;4.13;;;2.20;76.50;;;;;;4098191;28;20406;-83
2023/03/07 03:46:22;;;;;;;14.00;3.95;;;2.20;76.40;;;;;;4096651;29;20107;-84
2023/03/07 03:48:23;;;;;;;16.90;4.03;;;2.20;76.60;;;;;;4115069;28;20497;-84
2023/03/07 03:50:24;;;;;;;20.13;4.20;;;2.20;76.70;;;;;;4112887;28;20031;-84
2023/03/07 03:52:25;;;;;;;26.20;3.85;;;2.30;76.40;;;;;;4097282;29;20036;-84
2023/03/07 03:54:26;;;;;;;22.52;4.15;;;2.30;76.30;;;;;;4097719;28;20066;-86
2023/03/07 03:56:27;;;;;;;19.13;3.97;;;2.30;76.40;;;;;;4117323;28;20022;-87
2023/03/07 03:58:33;;;;;;;18.77;3.40;;;2.30;76.20;;;;;;4098323;28;20023;-83
2023/03/07 04:00:34;;;;;;;22.90;3.72;;;2.30;76.20;;;;;;4106587;28;20445;-83
2023/03/07 04:02:41;;;;;;;22.45;3.97;;;2.30;76.20;;;;;;4097443;28;20027;-82
2023/03/07 04:04:42;;;;;;;23.42;4.47;;;2.40;76.40;;;;;;4092792;28;20023;-82
2023/03/07 04:07:03;;;;;;;19.25;3.83;;;2.40;76.90;;;;;;4096809;28;20126;-82
2023/03/07 04:09:24;;;;;;;20.75;3.17;;;2.40;76.40;;;;;;4097160;28;20134;-81
2023/03/07 04:11:44;;;;;;;27.10;3.00;;;2.40;76.20;;;;;;4112932;28;20116;-82
2023/03/07 04:14:05;;;;;;;18.17;3.17;;;2.40;76.50;;;;;;4098994;28;20027;-83
2023/03/07 04:16:26;;;;;;;18.35;2.88;;;2.40;76.10;;;;;;4108192;28;20054;-83
2023/03/07 04:18:49;;;;;;;26.98;3.10;;;2.40;76.20;;;;;;4098337;28;20035;-81
2023/03/07 04:21:10;;;;;;;20.30;2.35;;;2.50;76.40;;;;;;4113314;28;20035;-82
2023/03/07 04:23:31;;;;;;;12.65;1.75;;;2.50;76.10;;;;;;4113360;28;20090;-81
2023/03/07 04:25:54;;;;;;;12.95;2.28;;;2.50;75.90;;;;;;4111781;28;20034;-82
2023/03/07 04:28:09;;;;;;;16.95;2.13;;;2.50;76.00;;;;;;4098176;28;20034;-83
2023/03/07 04:30:10;;;;;;;20.67;2.70;;;2.50;75.90;;;;;;4081407;29;20059;-83
2023/03/07 04:32:31;;;;;;;24.30;3.00;;;2.50;75.80;;;;;;4097428;28;20538;-83
2023/03/07 04:34:52;;;;;;;20.52;2.42;;;2.50;75.90;;;;;;4111557;28;20373;-83
2023/03/07 04:37:12;;;;;;;24.52;2.70;;;2.40;76.00;;;;;;4114496;28;20063;-82
2023/03/07 04:39:33;;;;;;;20.65;2.05;;;2.50;75.80;;;;;;4108375;28;20035;-83
2023/03/07 04:41:54;;;;;;;17.35;2.22;;;2.50;75.70;;;;;;4114445;28;20023;-83
2023/03/07 04:44:15;;;;;;;21.20;2.97;;;2.50;75.80;;;;;;4097683;28;20059;-82
2023/03/07 04:46:36;;;;;;;25.75;2.47;;;2.50;76.00;;;;;;4110766;28;20032;-82
2023/03/07 04:48:57;;;;;;;19.58;2.38;;;2.50;76.30;;;;;;4102163;28;20039;-83
2023/03/07 04:51:17;;;;;;;32.40;2.70;;;2.50;76.50;;;;;;4099709;28;20035;-82
2023/03/07 04:53:18;;;;;;;18.10;2.60;;;2.50;76.80;;;;;;4079799;29;20096;-81
2023/03/07 04:55:19;;;;;;;18.98;2.50;;;2.50;77.10;;;;;;4113739;28;20636;-81
2023/03/07 04:57:20;;;;;;;22.08;2.00;;;2.50;76.90;;;;;;4098480;29;20051;-83
2023/03/07 04:59:20;;;;;;;25.98;2.92;;;2.50;76.90;;;;;;4093393;28;20076;-82
2023/03/07 05:01:21;;;;;;;20.52;2.17;;;2.60;77.00;;;;;;4106328;28;20852;-83
2023/03/07 05:03:22;;;;;;;21.45;2.58;;;2.70;76.90;;;;;;4114811;28;20505;-83
2023/03/07 05:05:23;;;;;;;24.92;2.40;;;2.60;77.10;;;;;;4114306;28;20049;-81
2023/03/07 05:07:23;;;;;;;24.08;3.03;;;2.70;76.90;;;;;;4113996;28;20164;-82
2023/03/07 05:09:24;;;;;;;13.00;2.08;;;2.70;76.70;;;;;;4090763;29;20572;-85
2023/03/07 05:11:25;;;;;;;20.45;2.95;;;2.70;76.80;;;;;;4098530;28;20035;-83
2023/03/07 05:13:25;;;;;;;29.17;2.95;;;2.80;76.70;;;;;;4092129;28;20019;-82
2023/03/07 05:15:26;;;;;;;29.85;2.75;;;2.80;76.90;;;;;;4089572;28;20031;-80
2023/03/07 05:17:29;;;;;;;26.15;2.30;;;2.80;76.90;;;;;;4092309;28;20051;-83
2023/03/07 05:19:35;;;;;;;18.35;2.28;;;2.90;76.90;;;;;;4108913;28;20033;-83
2023/03/07 05:21:38;;;;;;;15.35;1.98;;;2.90;76.80;;;;;;4111984;28;20659;-84
2023/03/07 05:23:39;;;;;;;;;;;2.90;77.00;;;;;;4112386;28;20034;-84
2023/03/07 05:25:39;;;;;;;17.83;2.60;;;2.90;77.30;;;;;;4080655;29;19949;-83
2023/03/07 05:27:41;;;;;;;23.30;3.10;;;3.00;76.90;;;;;;4079825;29;20044;-83
2023/03/07 05:29:41;;;;;;;25.58;2.67;;;3.00;76.70;;;;;;4096605;29;20035;-84
2023/03/07 05:31:43;;;;;;;27.85;3.45;;;3.00;76.70;;;;;;4111608;28;20101;-83
2023/03/07 05:33:43;;;;;;;23.25;2.72;;;3.00;76.90;;;;;;4095288;29;20039;-83
2023/03/07 05:35:45;;;;;;;21.92;2.70;;;3.00;76.90;;;;;;4094234;28;20039;-83
2023/03/07 05:37:46;;;;;;;17.67;2.45;;;3.00;76.70;;;;;;4112290;28;20030;-82
2023/03/07 05:39:47;;;;;;;21.58;2.90;;;3.10;76.50;;;;;;4097749;28;20524;-83
2023/03/07 05:41:48;;;;;;;26.33;4.10;;;3.10;76.50;;;;;;4114747;28;20034;-82
2023/03/07 05:43:49;;;;;;;26.48;3.10;;;3.10;76.40;;;;;;4104345;28;20035;-82
2023/03/07 05:45:49;;;;;;;26.05;2.85;;;3.10;76.30;;;;;;4109140;28;20081;-83
2023/03/07 05:47:50;;;;;;;20.90;2.90;;;3.10;76.40;;;;;;4106155;28;20803;-84
2023/03/07 05:49:50;;;;;;;23.63;2.42;;;3.10;76.30;;;;;;4092461;28;20042;-82
2023/03/07 05:52:01;;;;;;;25.05;2.13;;;3.30;76.30;;;;;;4107812;28;20047;-82
2023/03/07 05:54:07;;;;;;;25.15;1.70;;;3.20;76.10;;;;;;4092220;28;20127;-82
2023/03/07 05:56:08;;;;;;;19.23;2.65;;;3.10;75.90;;;;;;4095682;29;20068;-82
2023/03/07 05:58:12;;;;;;;19.83;2.20;;;3.20;76.10;;;;;;4112586;28;20019;-83
2023/03/07 06:00:15;;;;;;;17.05;2.50;;;3.20;75.90;;;;;;4117676;28;20062;-82
2023/03/07 06:02:16;;;;;;;22.13;2.13;;;3.20;75.80;;;;;;4094422;28;20062;-81
2023/03/07 06:04:16;;;;;;;13.52;2.00;;;3.20;75.70;;;;;;4090093;29;20039;-82
2023/03/07 06:06:20;;;;;;;11.55;1.65;;;3.20;75.60;;;;;;4085209;29;20063;-82
2023/03/07 06:08:21;;;;;;;15.75;1.80;;;3.40;75.40;;;;;;4091048;28;20035;-83
2023/03/07 06:10:42;;;;;;;19.13;2.78;;;3.30;75.40;;;;;;4096382;28;20070;-84
2023/03/07 06:13:03;;;;;;;17.48;2.10;;;3.30;75.50;;;;;;4103440;28;20117;-83
2023/03/07 06:15:23;;;;;;;15.48;2.83;;;3.30;75.20;;;;;;4106930;28;20154;-84
2023/03/07 06:17:44;;;;;;;19.65;2.28;;;3.30;75.20;;;;;;4113122;28;20056;-84
2023/03/07 06:20:05;;;;;;;16.08;1.75;;;3.30;75.00;;;;;;4112298;28;20042;-84
2023/03/07 06:22:07;;;;;;;16.77;2.35;;;3.30;74.90;;;;;;4115059;28;20085;-82
2023/03/07 06:24:08;;;;;;;21.33;1.92;;;3.30;74.80;;;;;;4116112;28;20027;-83
2023/03/07 06:26:11;;;;;;;8.73;1.58;;;3.20;74.70;;;;;;4113337;28;20074;-82
2023/03/07 06:28:11;;;;;;;19.65;1.90;;;3.30;74.90;;;;;;4098664;28;20409;-83
2023/03/07 06:30:12;;;;;;;9.48;1.52;;;3.30;74.80;;;;;;4114886;28;20038;-83
2023/03/07 06:32:13;;;;;;;15.70;1.60;;;3.20;74.70;;;;;;4092854;29;20066;-82
2023/03/07 06:34:13;;;;;;;16.55;1.58;;;3.20;74.70;;;;;;4082664;29;20038;-83
2023/03/07 06:36:16;;;;;;;10.63;1.50;;;3.20;74.80;;;;;;4099682;28;20031;-82
2023/03/07 06:38:17;;;;;;;14.43;1.25;;;3.20;75.00;;;;;;4118264;28;20027;-83
2023/03/07 06:40:18;;;;;;;10.77;1.38;;;3.20;75.00;;;;;;4099852;28;20046;-82
2023/03/07 06:42:18;;;;;;;8.10;1.30;;;3.20;75.00;;;;;;4100925;28;20027;-82
2023/03/07 06:44:19;;;;;;;8.35;1.30;;;3.20;75.00;;;;;;4118621;28;20031;-83
2023/03/07 06:46:20;;;;;;;10.73;0.85;;;3.30;75.20;;;;;;4118211;28;20019;-83
2023/03/07 06:48:21;;;;;;;10.52;1.30;;;3.10;75.10;;;;;;4099317;29;20031;-82
2023/03/07 06:50:22;;;;;;;10.38;1.38;;;3.00;75.10;;;;;;4117574;28;20027;-82
2023/03/07 06:52:22;;;;;;;11.90;1.42;;;3.00;75.40;;;;;;4114557;28;20030;-82
2023/03/07 06:54:23;;;;;;;12.60;1.40;;;3.00;75.70;;;;;;4119517;28;20559;-82
2023/03/07 06:56:24;;;;;;;13.15;1.17;;;2.90;76.60;;;;;;4090567;29;20030;-84
2023/03/07 06:58:25;;;;;;;18.35;2.55;;;2.90;75.60;;;;;;4100156;28;20042;-82
2023/03/07 07:00:27;;;;;;;26.02;2.55;;;3.00;75.50;;;;;;4104921;28;20058;-82
2023/03/07 07:02:28;;;;;;;21.13;2.40;;;2.90;75.50;;;;;;4087734;29;20346;-83
2023/03/07 07:04:49;;;;;;;14.20;2.17;;;2.90;75.50;;;;;;4115107;28;20050;-81
2023/03/07 07:06:49;;;;;;;13.43;2.00;;;2.80;75.10;;;;;;4116843;28;20019;-83
2023/03/07 07:08:54;;;;;;;19.55;2.60;;;2.80;74.60;;;;;;4118777;28;20038;-83
2023/03/07 07:10:57;;;;;;;12.98;1.40;;;2.90;74.20;;;;;;4103093;29;20038;-82
2023/03/07 07:12:58;;;;;;;8.85;1.50;;;2.70;72.90;;;;;;4101351;29;20494;-84
2023/03/07 07:15:01;;;;;;;12.70;1.45;;;2.80;73.00;;;;;;4099927;28;20055;-84
2023/03/07 07:17:02;;;;;;;12.52;1.60;;;2.60;73.00;;;;;;4086045;29;20612;-84
2023/03/07 07:19:03;;;;;;;14.07;1.48;;;2.70;72.80;;;;;;4114701;28;20027;-84
2023/03/07 07:21:04;;;;;;;12.07;1.50;;;2.50;72.60;;;;;;4083247;29;20039;-82
2023/03/07 07:23:04;;;;;;;11.98;1.55;;;2.50;72.80;;;;;;4118388;28;20035;-83
2023/03/07 07:25:07;;;;;;;15.48;1.80;;;2.40;72.80;;;;;;4106469;29;20035;-83
2023/03/07 07:27:28;;;;;;;12.32;1.48;;;2.40;72.60;;;;;;4116175;28;20035;-83
2023/03/07 07:29:49;;;;;;;11.73;1.70;;;2.40;72.50;;;;;;4114516;28;20034;-82
2023/03/07 07:32:10;;;;;;;10.00;1.33;;;2.50;72.50;;;;;;4102606;28;20035;-82
2023/03/07 07:34:21;;;;;;;18.45;1.55;;;2.30;71.80;;;;;;4097956;29;20214;-82
2023/03/07 07:36:42;;;;;;;15.60;1.90;;;2.30;71.70;;;;;;4103433;28;20060;-83
2023/03/07 07:39:04;;;;;;;18.33;2.35;;;2.30;72.10;;;;;;4115776;28;20038;-83
2023/03/07 07:41:17;;;;;;;10.43;1.95;;;2.30;72.50;;;;;;4080344;29;20032;-84
2023/03/07 07:43:38;;;;;;;23.05;2.53;;;2.30;73.00;;;;;;4113549;28;20034;-83
2023/03/07 07:45:58;;;;;;;11.20;2.00;;;2.30;72.90;;;;;;4117430;28;20042;-82
2023/03/07 07:48:19;;;;;;;17.92;2.10;;;2.30;72.70;;;;;;4105478;28;20034;-83
2023/03/07 07:50:40;;;;;;;15.18;1.67;;;2.40;72.80;;;;;;4116653;28;20038;-82
2023/03/07 07:53:00;;;;;;;12.15;2.05;;;2.40;72.80;;;;;;4117981;28;20039;-83
2023/03/07 07:55:21;;;;;;;20.00;2.20;;;2.40;71.50;;;;;;4112935;28;20110;-83
2023/03/07 07:57:41;;;;;;;21.98;2.35;;;2.40;71.80;;;;;;4117820;28;20055;-84
2023/03/07 08:00:04;;;;;;;14.48;2.47;;;2.40;72.00;;;;;;4121613;28;20039;-82
2023/03/07 08:02:24;;;;;;;13.18;1.90;;;2.40;72.00;;;;;;4121169;28;20043;-83
2023/03/07 08:04:46;;;;;;;17.98;1.92;;;2.50;72.20;;;;;;4112057;28;20046;-83
2023/03/07 08:06:46;;;;;;;17.15;1.85;;;2.50;72.00;;;;;;4108418;28;20595;-82
2023/03/07 08:09:07;;;;;;;23.48;2.63;;;2.50;71.80;;;;;;4114948;28;20042;-83
2023/03/07 08:11:28;;;;;;;25.45;2.50;;;2.40;71.70;;;;;;4099645;28;20032;-82
2023/03/07 08:13:49;;;;;;;20.20;1.92;;;2.50;72.20;;;;;;4115277;28;20031;-83
2023/03/07 08:16:13;;;;;;;15.90;1.92;;;2.50;71.80;;;;;;4100850;28;20111;-82
2023/03/07 08:18:34;;;;;;;11.13;1.58;;;2.50;71.40;;;;;;4113458;28;20102;-82
2023/03/07 08:20:58;;;;;;;14.32;1.40;;;2.40;71.30;;;;;;4116029;28;20062;-83
2023/03/07 08:23:18;;;;;;;13.10;1.33;;;2.40;71.00;;;;;;4097833;28;20064;-83
2023/03/07 08:25:39;;;;;;;13.30;1.70;;;2.40;71.00;;;;;;4099854;28;20214;-83
2023/03/07 08:28:02;;;;;;;11.93;1.92;;;2.40;72.20;;;;;;4113184;28;20496;-84
2023/03/07 08:30:25;;;;;;;14.85;1.25;;;2.50;71.40;;;;;;4115386;28;20069;-83
2023/03/07 08:32:51;;;;;;;11.88;1.63;;;2.50;70.80;;;;;;4099282;28;20036;-84
2023/03/07 08:34:52;;;;;;;7.22;1.20;;;2.50;70.60;;;;;;4094275;29;20031;-82
2023/03/07 08:36:53;;;;;;;10.75;1.30;;;2.50;71.10;;;;;;4114457;28;20110;-81
2023/03/07 08:38:54;;;;;;;9.90;1.35;;;2.60;70.30;;;;;;4098878;28;20046;-83
2023/03/07 08:41:03;;;;;;;10.65;1.60;;;2.50;69.80;;;;;;4079370;29;20032;-82
2023/03/07 08:43:03;;;;;;;16.88;2.17;;;2.50;70.10;;;;;;4098202;29;20365;-82
2023/03/07 08:45:04;;;;;;;11.10;1.58;;;2.60;70.40;;;;;;4082664;29;20024;-82
2023/03/07 08:47:05;;;;;;;11.65;1.60;;;2.60;70.00;;;;;;4100591;28;20046;-83
2023/03/07 08:49:05;;;;;;;15.13;1.45;;;2.70;70.20;;;;;;4080152;29;20027;-82
2023/03/07 08:51:09;;;;;;;14.07;3.13;;;2.70;69.70;;;;;;4086420;29;20032;-83
2023/03/07 08:53:12;;;;;;;15.13;2.10;;;2.80;69.90;;;;;;4080572;29;20055;-83
2023/03/07 08:55:15;;;;;;;15.20;1.77;;;2.80;70.20;;;;;;4098446;28;20050;-82
2023/03/07 08:57:30;;;;;;;18.58;2.03;;;2.70;69.20;;;;;;4100159;28;20122;-85
2023/03/07 08:59:51;;;;;;;9.80;2.55;;;2.80;68.90;;;;;;4113435;28;20031;-83
2023/03/07 09:01:56;;;;;;;11.35;1.52;;;2.80;68.80;;;;;;4114985;28;20035;-82
2023/03/07 09:04:16;;;;;;;11.25;1.50;;;2.70;68.80;;;;;;4115907;28;20043;-83
2023/03/07 09:06:37;;;;;;;11.98;1.50;;;2.80;68.20;;;;;;4115326;28;20484;-82
2023/03/07 09:08:57;;;;;;;14.40;1.60;;;2.80;68.10;;;;;;4103989;28;20035;-84
2023/03/07 09:11:20;;;;;;;9.82;1.38;;;2.80;67.90;;;;;;4099316;28;20126;-82
2023/03/07 09:13:41;;;;;;;12.27;1.75;;;2.90;67.70;;;;;;4101661;28;20039;-82
2023/03/07 09:16:06;;;;;;;13.07;1.48;;;3.00;68.00;;;;;;4101350;28;20494;-83
2023/03/07 09:18:27;;;;;;;17.80;1.38;;;3.00;66.40;;;;;;4094824;28;20040;-83
2023/03/07 09:20:47;;;;;;;8.07;1.60;;;3.10;65.90;;;;;;4095934;28;20055;-83
2023/03/07 09:23:09;;;;;;;11.55;1.30;;;3.00;65.40;;;;;;4115347;28;20031;-82
2023/03/07 09:25:30;;;;;;;14.63;1.35;;;3.00;66.20;;;;;;4117135;28;20621;-82
2023/03/07 09:27:54;;;;;;;7.45;1.73;;;3.00;66.70;;;;;;4115436;28;20146;-83
2023/03/07 09:30:15;;;;;;;17.60;1.60;;;3.00;66.50;;;;;;4115657;28;20023;-83
2023/03/07 09:32:35;;;;;;;9.38;1.90;;;2.90;66.30;;;;;;4115673;28;20512;-81
2023/03/07 09:34:56;;;;;;;12.70;1.45;;;2.90;66.70;;;;;;4115053;28;20034;-81
2023/03/07 09:36:57;;;;;;;14.40;1.77;;;2.90;66.80;;;;;;4117662;28;20014;-82
2023/03/07 09:38:58;;;;;;;10.80;1.85;;;2.90;67.30;;;;;;4118848;28;20033;-81
2023/03/07 09:41:43;;;;;;;10.25;1.90;;;3.00;67.60;;;;;;4116756;28;20037;-84
2023/03/07 09:43:56;;;;;;;13.60;1.83;;;3.00;67.80;;;;;;4079450;29;20042;-84
2023/03/07 09:46:57;;;;;;;17.70;1.98;;;3.00;67.80;;;;;;4101955;28;20039;-83
2023/03/07 09:49:24;;;;;;;10.57;1.40;;;3.00;67.80;;;;;;4117842;28;20138;-83
2023/03/07 09:51:50;;;;;;;17.25;2.65;;;3.00;67.30;;;;;;4098473;28;20086;-83
2023/03/07 09:54:16;;;;;;;13.43;1.83;;;3.00;67.30;;;;;;4098242;28;20026;-83
2023/03/07 09:56:41;;;;;;;7.95;1.30;;;3.10;67.80;;;;;;4099301;29;20085;-82
2023/03/07 09:59:10;;;;;;;9.30;1.23;;;3.00;67.10;;;;;;4114708;28;20038;-83
2023/03/07 10:01:34;;;;;;;6.88;0.75;;;3.00;67.30;;;;;;4117328;28;20030;-82
2023/03/07 10:04:00;;;;;;;10.75;1.80;;;3.00;67.20;;;;;;4115171;28;20491;-82
2023/03/07 10:06:25;;;;;;;9.07;1.67;;;3.00;67.20;;;;;;4100936;28;20073;-82
2023/03/07 10:08:46;;;;;;;14.27;2.97;;;3.00;66.20;;;;;;4114196;28;20055;-83
2023/03/07 10:11:26;;;;;;;14.88;1.42;;;2.90;64.80;;;;;;4114808;28;20045;-82
2023/03/07 10:14:00;;;;;;;11.38;1.77;;;2.80;64.80;;;;;;4103363;28;20046;-82
2023/03/07 10:16:44;;;;;;;9.25;1.33;;;2.80;65.00;;;;;;4119340;28;20118;-83
2023/03/07 10:19:26;;;;;;;6.68;0.85;;;2.70;64.50;;;;;;4116562;28;20039;-82
2023/03/07 10:21:34;;;;;;;6.43;0.73;;;2.70;64.20;;;;;;4116780;28;20421;-83
2023/03/07 10:24:02;;;;;;;7.85;1.27;;;2.60;64.20;;;;;;4117483;28;20030;-81
2023/03/07 10:26:18;;;;;;;5.15;0.95;;;2.60;64.50;;;;;;4115212;28;20035;-82
2023/03/07 10:28:29;;;;;;;5.85;1.05;;;2.60;65.30;;;;;;4117686;28;20588;-83
2023/03/07 10:30:31;;;;;;;4.80;0.73;;;2.60;65.70;;;;;;4119197;28;20033;-83
2023/03/07 10:32:47;;;;;;;7.72;0.90;;;2.60;65.50;;;;;;4086068;29;20040;-82
2023/03/07 10:35:10;;;;;;;6.93;1.35;;;2.70;65.60;;;;;;4098137;29;20526;-82
2023/03/07 10:37:25;;;;;;;5.70;0.90;;;2.70;65.10;;;;;;4123986;28;20031;-81
2023/03/07 10:39:35;;;;;;;4.38;1.05;;;2.70;65.20;;;;;;4086441;29;20414;-83
2023/03/07 10:41:35;;;;;;;6.43;0.82;;;2.70;65.50;;;;;;4101234;29;20023;-81
2023/03/07 10:43:37;;;;;;;7.63;1.35;;;2.60;65.40;;;;;;4116911;28;20134;-83
2023/03/07 10:45:39;;;;;;;5.40;1.20;;;2.60;66.00;;;;;;4103392;29;20031;-83
2023/03/07 10:47:41;;;;;;;5.40;0.88;;;2.80;66.50;;;;;;4105490;28;20050;-83
2023/03/07 10:49:44;;;;;;;4.20;1.10;;;2.60;66.80;;;;;;4118925;28;20038;-83
2023/03/07 10:52:11;;;;;;;2.72;0.50;;;2.70;67.50;;;;;;4103771;28;20035;-83
2023/03/07 10:54:15;;;;;;;4.50;1.40;;;2.70;67.80;;;;;;4121707;28;20074;-84
2023/03/07 10:56:36;;;;;;;5.82;1.33;;;2.70;68.60;;;;;;4120562;28;20046;-84
2023/03/07 10:59:08;;;;;;;2.95;0.57;;;2.50;69.60;;;;;;4121664;28;20034;-82
2023/03/07 11:01:22;;;;;;;7.85;1.02;;;2.50;70.30;;;;;;4086208;29;20031;-83
2023/03/07 11:03:51;;;;;;;3.03;0.77;;;2.30;70.40;;;;;;4111396;28;20035;-81
2023/03/07 11:06:50;;;;;;;5.22;0.77;;;2.30;69.90;;;;;;4113817;28;20123;-82
2023/03/07 11:09:22;;;;;;;3.83;0.80;;;2.10;69.10;;;;;;4114799;28;20065;-82
2023/03/07 11:11:48;;;;;;;6.18;0.82;;;2.00;70.10;;;;;;4115569;28;20031;-83
2023/03/07 11:14:12;;;;;;;8.93;1.27;;;2.00;71.80;;;;;;4116368;28;20078;-83
2023/03/07 11:16:58;;;;;;;6.22;0.98;;;1.90;72.30;;;;;;4119658;28;20042;-84
2023/03/07 11:19:33;;;;;;;8.32;0.70;;;1.90;72.60;;;;;;4097012;28;20678;-84
2023/03/07 11:21:55;;;;;;;1.38;0.40;;;1.80;71.30;;;;;;4117294;28;20066;-82